Maryland AWOS List, Phone Numbers

USA |  
| Search AWOS

Rocky Mountain States: Montana | Wyoming | Colorado | New Mexico

Complete weather reports: Maryland

Legend: KFNL = METAR available Follow your local AWOS on AV Mobile = METAR available on AV Mobile
Station Maryland Location Frequency Phone
KAPGFAA ID APG, KAPG 221158Z 00000KT 9SM OVC120 05/03 A3006 Follow KAPG on AV Mobile Phillips Army Air Field / Aberdeen
K61WICAO ID K61W Annapolis Coast Guard Station
KNAKICAO ID KNAK, KNAK 221154Z AUTO 11005KT 10SM OVC100 07/06 A3004 RMK AO2 SLP173 T00720056 10072 20067 50003 Follow KNAK on AV Mobile ANNAPOLIS US NAVAL ACADEMY
KLWXICAO ID KLWX Baltimore / DC Nexrad
KDMHICAO ID KDMH, KDMH 221154Z AUTO 08/03 A3004 RMK AO1 SLP173 T00780028 10083 20072 58001 Follow KDMH on AV Mobile BALTIMORE DOWNTOWN
KMTNFAA ID MTN, AWOS-3PT, KMTN 221145Z 12003KT 10SM BKN120 OVC160 07/06 A3006 Follow KMTN on AV Mobile Baltimore / Martin 124.925 410-682-8848
KBWIFAA ID BWI, ASOS, KBWI 221154Z 00000KT 10SM BKN120 OVC200 07/04 A3003 Follow KBWI on AV Mobile BALTIMORE-WASHINGTON INTERNATIONAL 410-691-1278
4MDFAA ID 4MD, Belfort PIER 7
KCGEFAA ID CGE, AWOS-3, KCGE 201337Z AUTO 36003KT 10SM CLR 10/05 A3021 RMK AO1 Follow KCGE on AV Mobile CAMBRIDGE 120.675 410-228-7559
KADWFAA ID ADW, KADW 221200Z AUTO 16003KT 10SM UP FEW007 BKN060 07/04 A3002 RMK AO2 UPB00 Follow KADW on AV Mobile Camp Springs / Andrews Air Force Base
W32FAA ID W32, Belfort WASHINGTON EXECUTIVE/HYDE FIELD
KCGSFAA ID CGS, AWOS-3, KCGS 221241Z AUTO 00000KT 10SM SCT120 07/04 A3004 RMK AO1 Follow KCGS on AV Mobile COLLEGE PARK 121.225 301-864-5497
K66WICAO ID K66W Cove Point Coast Guard Light Station
KCBEFAA ID CBE, AWOS-3, KCBE 221242Z AUTO 00000KT 10SM CLR 06/03 A3005 Follow KCBE on AV Mobile Cumberland, Greater Cumberland Regional Airport 128.625 304-738-0451
KESNFAA ID ESN, AWOS-3, KESN 221230Z 00000KT 10SM OVC015 07/04 A3009 Follow KESN on AV Mobile Easton / Newman Field 124.475 410-822-2817
KFMEFAA ID FME, AWOS-3, KFME 221200Z AUTO 00000KT 10SM CLR 05/02 A3006 RMK AO1 Follow KFME on AV Mobile Fort Meade / Tipton 123.925
KJWXICAO ID KJWX Fort Ritchie
KFDKFAA ID FDK, AWOS-3, KFDK 221155Z AUTO 00000KT 10SM SCT100 SCT120 03/03 A3005 Follow KFDK on AV Mobile Frederick, Frederick Municipal Airport 124.875 301-600-1457
KGAIFAA ID GAI, AWOS-3, KGAI 221235Z AUTO 14004KT 10SM OVC100 07/02 A3007 RMK AO1 Follow KGAI on AV Mobile GAITHERSBURG 128.275 301-977-2971
KHGRFAA ID HGR, ASOS, KHGR 221153Z 00000KT 10SM CLR 06/03 A3000 RMK AO2 SLP171 T00610028 10100 20061 55001 Follow KHGR on AV Mobile HAGERSTOWN REGIONAL AIRPORT 126.375 301-745-3497
K2W6FAA ID 2W6, AWOS-3, K2W6 221241Z AUTO 00000KT 10SM CLR 07/05 A3006 RMK AO1 Follow K2W6 on AV Mobile LEONARDTOWN 119.575 301-373-6514
K2G4FAA ID 2G4, AWOS-3, K2G4 221240Z AUTO 23005KT 10SM OVC090 08/03 A3000 RMK AO1 Follow K2G4 on AV Mobile OAKLAND 120.125 301-746-8443
KW30ICAO ID KW30 Ocean City
KN80ICAO ID KN80 Ocean City, Ocean City Municipal Airport
KOXBFAA ID OXB, ASOS, KOXB 221209Z AUTO 22003KT 10SM FEW004 FEW065 08/07 A3007 RMK AO2 T00830072 Follow KOXB on AV Mobile OCEAN CITY MUNICIPAL AIRPORT 119.025 410-213-1530
KNHKFAA ID NHK, KNHK 221152Z 00000KT 10SM FEW010 BKN160 07/06 A3005 RMK AO2 SLP174 T00720061 10072 20056 55000 Follow KNHK on AV Mobile NAS PATUXENT RIVER MD
KSBYFAA ID SBY, ASOS, KSBY 221154Z 00000KT 10SM CLR 06/06 A3005 Follow KSBY on AV Mobile SALISBURY-WICOMICO CTY REG 118.325 410-341-0868
KNUIFAA ID NUI, KNUI 221153Z AUTO 00000KT 10SM CLR 07/06 A3004 RMK AO2 SLP171 T00720056 10072 20044 55003 Follow KNUI on AV Mobile KNUI WEBSTER FIELD ANNEX
KW29FAA ID W29, AWOS-3, KW29 221240Z AUTO 14003KT 7SM BR OVC012 07/05 A3005 RMK AO2 TSNO Follow KW29 on AV Mobile STEVENSVILLE 120.575 410-643-8795
K67WICAO ID K67W Stillpond Coast Guard Station
K65WICAO ID K65W Thomas Point Coast Guard Station
KDMWFAA ID DMW, AWOS-3, KDMW 221240Z AUTO 00000KT 10SM CLR 06/04 A3002 RMK AO2 Follow KDMW on AV Mobile WESTMINSTER 121.25 410-876-1281

Click on the AV Mobile icon AV Mobile icon by any station to follow that AWOS feed on AirportView.net Mobile.

Garmin Target Trend Avemco Insurance Company